sensor_id;sensor_type;location;lat;lon;timestamp;P1;durP1;ratioP1;P2;durP2;ratioP2
11000;SDS011;5553;48.506;8.870;2022-12-01T00:00:30;24.33;;;11.67;;
11000;SDS011;5553;48.506;8.870;2022-12-01T00:02:58;27.27;;;12.47;;
11000;SDS011;5553;48.506;8.870;2022-12-01T00:05:26;24.87;;;11.07;;
11000;SDS011;5553;48.506;8.870;2022-12-01T00:07:56;25.80;;;12.30;;
11000;SDS011;5553;48.506;8.870;2022-12-01T00:10:24;31.47;;;12.63;;
11000;SDS011;5553;48.506;8.870;2022-12-01T00:12:53;21.90;;;11.90;;
11000;SDS011;5553;48.506;8.870;2022-12-01T00:15:22;27.33;;;12.37;;
11000;SDS011;5553;48.506;8.870;2022-12-01T00:17:53;22.83;;;11.50;;
11000;SDS011;5553;48.506;8.870;2022-12-01T00:20:21;24.73;;;11.47;;
11000;SDS011;5553;48.506;8.870;2022-12-01T00:22:50;21.83;;;11.27;;
11000;SDS011;5553;48.506;8.870;2022-12-01T00:25:20;25.40;;;11.03;;
11000;SDS011;5553;48.506;8.870;2022-12-01T00:27:49;23.90;;;12.13;;
11000;SDS011;5553;48.506;8.870;2022-12-01T00:30:21;27.83;;;11.97;;
11000;SDS011;5553;48.506;8.870;2022-12-01T00:32:50;22.80;;;11.10;;
11000;SDS011;5553;48.506;8.870;2022-12-01T00:35:18;28.10;;;12.07;;
11000;SDS011;5553;48.506;8.870;2022-12-01T00:37:46;23.20;;;11.90;;
11000;SDS011;5553;48.506;8.870;2022-12-01T00:40:15;24.13;;;11.97;;
11000;SDS011;5553;48.506;8.870;2022-12-01T00:42:43;19.80;;;9.87;;
11000;SDS011;5553;48.506;8.870;2022-12-01T00:45:11;21.17;;;11.17;;
11000;SDS011;5553;48.506;8.870;2022-12-01T00:47:42;23.83;;;11.03;;
11000;SDS011;5553;48.506;8.870;2022-12-01T00:50:11;25.10;;;11.43;;
11000;SDS011;5553;48.506;8.870;2022-12-01T00:52:39;20.80;;;11.20;;
11000;SDS011;5553;48.506;8.870;2022-12-01T00:55:07;25.10;;;11.50;;
11000;SDS011;5553;48.506;8.870;2022-12-01T00:57:36;21.53;;;10.93;;
11000;SDS011;5553;48.506;8.870;2022-12-01T01:00:05;19.03;;;10.03;;
11000;SDS011;5553;48.506;8.870;2022-12-01T01:02:37;22.27;;;10.07;;
11000;SDS011;5553;48.506;8.870;2022-12-01T01:05:08;20.33;;;9.53;;
11000;SDS011;5553;48.506;8.870;2022-12-01T01:07:36;22.40;;;11.00;;
11000;SDS011;5553;48.506;8.870;2022-12-01T01:10:06;26.60;;;11.00;;
11000;SDS011;5553;48.506;8.870;2022-12-01T01:12:34;21.90;;;11.27;;
11000;SDS011;5553;48.506;8.870;2022-12-01T01:15:03;21.87;;;10.00;;
11000;SDS011;5553;48.506;8.870;2022-12-01T01:17:32;21.93;;;10.50;;
11000;SDS011;5553;48.506;8.870;2022-12-01T01:20:00;25.20;;;11.40;;
11000;SDS011;5553;48.506;8.870;2022-12-01T01:22:33;25.03;;;11.10;;
11000;SDS011;5553;48.506;8.870;2022-12-01T01:25:02;20.93;;;10.00;;
11000;SDS011;5553;48.506;8.870;2022-12-01T01:27:31;24.83;;;10.33;;
11000;SDS011;5553;48.506;8.870;2022-12-01T01:30:00;24.43;;;10.70;;
11000;SDS011;5553;48.506;8.870;2022-12-01T01:32:29;17.93;;;9.20;;
11000;SDS011;5553;48.506;8.870;2022-12-01T01:34:57;22.20;;;10.67;;
11000;SDS011;5553;48.506;8.870;2022-12-01T01:37:26;21.43;;;11.20;;
11000;SDS011;5553;48.506;8.870;2022-12-01T01:39:56;23.53;;;11.13;;
11000;SDS011;5553;48.506;8.870;2022-12-01T01:42:25;27.70;;;11.60;;
11000;SDS011;5553;48.506;8.870;2022-12-01T01:44:54;25.97;;;12.57;;
11000;SDS011;5553;48.506;8.870;2022-12-01T01:47:24;22.10;;;10.80;;
11000;SDS011;5553;48.506;8.870;2022-12-01T01:49:55;20.43;;;11.10;;
11000;SDS011;5553;48.506;8.870;2022-12-01T01:52:29;24.17;;;12.33;;
11000;SDS011;5553;48.506;8.870;2022-12-01T01:55:01;24.63;;;10.57;;
11000;SDS011;5553;48.506;8.870;2022-12-01T01:57:30;23.73;;;11.70;;
11000;SDS011;5553;48.506;8.870;2022-12-01T02:00:02;23.60;;;10.93;;
11000;SDS011;5553;48.506;8.870;2022-12-01T02:02:33;20.70;;;11.07;;
11000;SDS011;5553;48.506;8.870;2022-12-01T02:05:05;30.53;;;12.50;;
11000;SDS011;5553;48.506;8.870;2022-12-01T02:07:36;27.70;;;13.03;;
11000;SDS011;5553;48.506;8.870;2022-12-01T02:10:08;30.50;;;14.57;;
11000;SDS011;5553;48.506;8.870;2022-12-01T02:12:45;29.43;;;14.17;;
11000;SDS011;5553;48.506;8.870;2022-12-01T02:15:25;27.20;;;13.40;;
11000;SDS011;5553;48.506;8.870;2022-12-01T02:18:04;32.80;;;13.70;;
11000;SDS011;5553;48.506;8.870;2022-12-01T02:21:06;25.17;;;10.83;;
11000;SDS011;5553;48.506;8.870;2022-12-01T02:26:58;30.27;;;13.57;;
11000;SDS011;5553;48.506;8.870;2022-12-01T02:29:38;31.90;;;13.20;;
11000;SDS011;5553;48.506;8.870;2022-12-01T02:32:44;28.90;;;12.07;;
11000;SDS011;5553;48.506;8.870;2022-12-01T02:35:26;28.57;;;13.37;;
11000;SDS011;5553;48.506;8.870;2022-12-01T02:38:04;34.53;;;14.67;;
11000;SDS011;5553;48.506;8.870;2022-12-01T02:40:39;30.33;;;13.13;;
11000;SDS011;5553;48.506;8.870;2022-12-01T02:43:26;31.60;;;13.30;;
11000;SDS011;5553;48.506;8.870;2022-12-01T02:45:59;33.10;;;14.23;;
11000;SDS011;5553;48.506;8.870;2022-12-01T02:48:37;29.40;;;13.30;;
11000;SDS011;5553;48.506;8.870;2022-12-01T02:51:08;29.63;;;15.00;;
11000;SDS011;5553;48.506;8.870;2022-12-01T02:53:39;28.10;;;12.43;;
11000;SDS011;5553;48.506;8.870;2022-12-01T02:56:09;29.13;;;14.30;;
11000;SDS011;5553;48.506;8.870;2022-12-01T02:58:40;35.77;;;15.00;;
11000;SDS011;5553;48.506;8.870;2022-12-01T03:01:13;29.20;;;12.43;;
11000;SDS011;5553;48.506;8.870;2022-12-01T03:04:06;35.60;;;13.20;;
11000;SDS011;5553;48.506;8.870;2022-12-01T03:06:57;31.43;;;15.23;;
11000;SDS011;5553;48.506;8.870;2022-12-01T03:09:41;27.90;;;14.43;;
11000;SDS011;5553;48.506;8.870;2022-12-01T03:12:19;31.20;;;14.30;;
11000;SDS011;5553;48.506;8.870;2022-12-01T03:14:54;28.87;;;12.87;;
11000;SDS011;5553;48.506;8.870;2022-12-01T03:17:29;31.50;;;13.63;;
11000;SDS011;5553;48.506;8.870;2022-12-01T03:20:09;28.70;;;14.17;;
11000;SDS011;5553;48.506;8.870;2022-12-01T03:22:45;30.13;;;12.80;;
11000;SDS011;5553;48.506;8.870;2022-12-01T03:25:17;30.47;;;14.80;;
11000;SDS011;5553;48.506;8.870;2022-12-01T03:27:47;29.53;;;13.50;;
11000;SDS011;5553;48.506;8.870;2022-12-01T03:30:20;28.43;;;13.80;;
11000;SDS011;5553;48.506;8.870;2022-12-01T03:32:50;29.90;;;12.13;;
11000;SDS011;5553;48.506;8.870;2022-12-01T03:35:28;34.40;;;14.70;;
11000;SDS011;5553;48.506;8.870;2022-12-01T03:38:01;30.40;;;15.33;;
11000;SDS011;5553;48.506;8.870;2022-12-01T03:40:34;34.20;;;14.93;;
11000;SDS011;5553;48.506;8.870;2022-12-01T03:43:05;32.37;;;14.00;;
11000;SDS011;5553;48.506;8.870;2022-12-01T03:45:39;28.90;;;14.10;;
11000;SDS011;5553;48.506;8.870;2022-12-01T03:48:13;25.63;;;13.37;;
11000;SDS011;5553;48.506;8.870;2022-12-01T03:50:47;35.87;;;14.70;;
11000;SDS011;5553;48.506;8.870;2022-12-01T03:53:24;36.50;;;15.00;;
11000;SDS011;5553;48.506;8.870;2022-12-01T03:55:59;30.33;;;15.60;;
11000;SDS011;5553;48.506;8.870;2022-12-01T03:58:30;32.57;;;14.40;;
11000;SDS011;5553;48.506;8.870;2022-12-01T04:01:03;28.87;;;13.93;;
11000;SDS011;5553;48.506;8.870;2022-12-01T04:03:32;30.33;;;13.57;;
11000;SDS011;5553;48.506;8.870;2022-12-01T04:06:03;33.47;;;15.80;;
11000;SDS011;5553;48.506;8.870;2022-12-01T04:08:32;30.40;;;14.47;;
11000;SDS011;5553;48.506;8.870;2022-12-01T04:11:01;32.00;;;14.63;;
11000;SDS011;5553;48.506;8.870;2022-12-01T04:13:50;31.40;;;14.77;;
11000;SDS011;5553;48.506;8.870;2022-12-01T04:16:15;29.17;;;14.07;;
11000;SDS011;5553;48.506;8.870;2022-12-01T04:18:44;29.70;;;14.90;;
11000;SDS011;5553;48.506;8.870;2022-12-01T04:21:15;31.60;;;14.77;;
11000;SDS011;5553;48.506;8.870;2022-12-01T04:23:43;31.47;;;14.50;;
11000;SDS011;5553;48.506;8.870;2022-12-01T04:26:24;36.00;;;15.23;;
11000;SDS011;5553;48.506;8.870;2022-12-01T04:28:52;29.97;;;15.10;;
11000;SDS011;5553;48.506;8.870;2022-12-01T04:31:20;32.57;;;15.10;;
11000;SDS011;5553;48.506;8.870;2022-12-01T04:33:49;32.43;;;15.43;;
11000;SDS011;5553;48.506;8.870;2022-12-01T04:36:20;36.00;;;14.60;;
11000;SDS011;5553;48.506;8.870;2022-12-01T04:38:48;34.83;;;15.23;;
11000;SDS011;5553;48.506;8.870;2022-12-01T04:41:16;29.87;;;13.83;;
11000;SDS011;5553;48.506;8.870;2022-12-01T04:43:45;35.63;;;14.80;;
11000;SDS011;5553;48.506;8.870;2022-12-01T04:46:13;28.87;;;13.60;;
11000;SDS011;5553;48.506;8.870;2022-12-01T04:48:42;34.83;;;14.10;;
11000;SDS011;5553;48.506;8.870;2022-12-01T04:51:11;29.03;;;13.87;;
11000;SDS011;5553;48.506;8.870;2022-12-01T04:53:42;31.47;;;14.53;;
11000;SDS011;5553;48.506;8.870;2022-12-01T04:56:10;31.33;;;15.20;;
11000;SDS011;5553;48.506;8.870;2022-12-01T04:58:38;31.23;;;14.00;;
11000;SDS011;5553;48.506;8.870;2022-12-01T05:01:07;29.43;;;15.70;;
11000;SDS011;5553;48.506;8.870;2022-12-01T05:03:38;30.43;;;14.87;;
11000;SDS011;5553;48.506;8.870;2022-12-01T05:06:09;32.07;;;14.30;;
11000;SDS011;5553;48.506;8.870;2022-12-01T05:08:38;31.87;;;14.13;;
11000;SDS011;5553;48.506;8.870;2022-12-01T05:11:10;31.03;;;14.90;;
11000;SDS011;5553;48.506;8.870;2022-12-01T05:13:40;36.57;;;16.37;;
11000;SDS011;5553;48.506;8.870;2022-12-01T05:16:10;35.07;;;16.63;;
11000;SDS011;5553;48.506;8.870;2022-12-01T05:18:40;34.37;;;16.80;;
11000;SDS011;5553;48.506;8.870;2022-12-01T05:21:09;29.93;;;14.40;;
11000;SDS011;5553;48.506;8.870;2022-12-01T05:23:35;35.20;;;14.47;;
11000;SDS011;5553;48.506;8.870;2022-12-01T05:26:07;33.33;;;14.47;;
11000;SDS011;5553;48.506;8.870;2022-12-01T05:28:36;31.93;;;16.53;;
11000;SDS011;5553;48.506;8.870;2022-12-01T05:31:05;33.77;;;16.60;;
11000;SDS011;5553;48.506;8.870;2022-12-01T05:33:33;32.93;;;15.03;;
11000;SDS011;5553;48.506;8.870;2022-12-01T05:36:02;38.20;;;15.80;;
11000;SDS011;5553;48.506;8.870;2022-12-01T05:38:31;30.57;;;14.40;;
11000;SDS011;5553;48.506;8.870;2022-12-01T05:41:00;35.77;;;15.47;;
11000;SDS011;5553;48.506;8.870;2022-12-01T05:43:30;34.60;;;14.93;;
11000;SDS011;5553;48.506;8.870;2022-12-01T05:45:59;32.27;;;14.87;;
11000;SDS011;5553;48.506;8.870;2022-12-01T05:48:27;33.33;;;14.30;;
11000;SDS011;5553;48.506;8.870;2022-12-01T05:50:56;35.20;;;16.10;;
11000;SDS011;5553;48.506;8.870;2022-12-01T05:55:52;33.47;;;16.77;;
11000;SDS011;5553;48.506;8.870;2022-12-01T05:58:21;33.43;;;15.80;;
11000;SDS011;5553;48.506;8.870;2022-12-01T06:00:52;36.53;;;16.77;;
11000;SDS011;5553;48.506;8.870;2022-12-01T06:03:20;33.47;;;16.40;;
11000;SDS011;5553;48.506;8.870;2022-12-01T06:05:48;32.97;;;16.40;;
11000;SDS011;5553;48.506;8.870;2022-12-01T06:08:17;34.87;;;16.83;;
11000;SDS011;5553;48.506;8.870;2022-12-01T06:10:46;34.80;;;15.10;;
11000;SDS011;5553;48.506;8.870;2022-12-01T06:13:14;27.93;;;14.03;;
11000;SDS011;5553;48.506;8.870;2022-12-01T06:15:42;34.47;;;15.13;;
11000;SDS011;5553;48.506;8.870;2022-12-01T06:18:13;31.97;;;14.73;;
11000;SDS011;5553;48.506;8.870;2022-12-01T06:20:42;29.87;;;14.77;;
11000;SDS011;5553;48.506;8.870;2022-12-01T06:23:10;30.37;;;15.00;;
11000;SDS011;5553;48.506;8.870;2022-12-01T06:25:38;31.67;;;14.97;;
11000;SDS011;5553;48.506;8.870;2022-12-01T06:28:07;27.03;;;12.73;;
11000;SDS011;5553;48.506;8.870;2022-12-01T06:30:35;29.43;;;14.87;;
11000;SDS011;5553;48.506;8.870;2022-12-01T06:33:03;35.47;;;16.80;;
11000;SDS011;5553;48.506;8.870;2022-12-01T06:35:34;34.77;;;16.43;;
11000;SDS011;5553;48.506;8.870;2022-12-01T06:38:03;40.20;;;18.53;;
11000;SDS011;5553;48.506;8.870;2022-12-01T06:40:31;36.60;;;17.40;;
11000;SDS011;5553;48.506;8.870;2022-12-01T06:43:00;37.10;;;16.97;;
11000;SDS011;5553;48.506;8.870;2022-12-01T06:45:29;43.93;;;19.70;;
11000;SDS011;5553;48.506;8.870;2022-12-01T06:47:58;31.30;;;15.60;;
11000;SDS011;5553;48.506;8.870;2022-12-01T06:50:27;31.67;;;15.73;;
11000;SDS011;5553;48.506;8.870;2022-12-01T06:52:58;35.10;;;16.63;;
11000;SDS011;5553;48.506;8.870;2022-12-01T06:55:26;33.00;;;15.03;;
11000;SDS011;5553;48.506;8.870;2022-12-01T06:57:54;34.80;;;15.67;;
11000;SDS011;5553;48.506;8.870;2022-12-01T07:00:25;36.20;;;14.53;;
11000;SDS011;5553;48.506;8.870;2022-12-01T07:02:54;34.87;;;15.83;;
11000;SDS011;5553;48.506;8.870;2022-12-01T07:05:22;34.50;;;16.50;;
11000;SDS011;5553;48.506;8.870;2022-12-01T07:07:51;31.80;;;15.20;;
11000;SDS011;5553;48.506;8.870;2022-12-01T07:10:22;32.10;;;16.33;;
11000;SDS011;5553;48.506;8.870;2022-12-01T07:12:51;31.90;;;13.10;;
11000;SDS011;5553;48.506;8.870;2022-12-01T07:15:22;34.23;;;13.53;;
11000;SDS011;5553;48.506;8.870;2022-12-01T07:17:52;29.67;;;15.23;;
11000;SDS011;5553;48.506;8.870;2022-12-01T07:20:21;24.60;;;12.13;;
11000;SDS011;5553;48.506;8.870;2022-12-01T07:22:49;24.53;;;12.23;;
11000;SDS011;5553;48.506;8.870;2022-12-01T07:25:17;29.57;;;14.13;;
11000;SDS011;5553;48.506;8.870;2022-12-01T07:27:48;29.90;;;14.40;;
11000;SDS011;5553;48.506;8.870;2022-12-01T07:30:16;32.07;;;14.07;;
11000;SDS011;5553;48.506;8.870;2022-12-01T07:32:45;33.80;;;12.87;;
11000;SDS011;5553;48.506;8.870;2022-12-01T07:35:13;28.77;;;13.90;;
11000;SDS011;5553;48.506;8.870;2022-12-01T07:37:42;31.87;;;13.93;;
11000;SDS011;5553;48.506;8.870;2022-12-01T07:40:10;26.37;;;12.03;;
11000;SDS011;5553;48.506;8.870;2022-12-01T07:42:39;26.77;;;13.60;;
11000;SDS011;5553;48.506;8.870;2022-12-01T07:45:11;31.77;;;14.33;;
11000;SDS011;5553;48.506;8.870;2022-12-01T07:47:39;28.67;;;14.77;;
11000;SDS011;5553;48.506;8.870;2022-12-01T07:50:08;30.37;;;15.37;;
11000;SDS011;5553;48.506;8.870;2022-12-01T07:52:37;31.20;;;14.30;;
11000;SDS011;5553;48.506;8.870;2022-12-01T07:55:06;30.80;;;14.70;;
11000;SDS011;5553;48.506;8.870;2022-12-01T07:57:34;28.93;;;14.80;;
11000;SDS011;5553;48.506;8.870;2022-12-01T08:00:03;29.83;;;15.00;;
11000;SDS011;5553;48.506;8.870;2022-12-01T08:02:36;30.07;;;15.50;;
11000;SDS011;5553;48.506;8.870;2022-12-01T08:05:04;29.67;;;14.43;;
11000;SDS011;5553;48.506;8.870;2022-12-01T08:07:33;38.30;;;15.73;;
11000;SDS011;5553;48.506;8.870;2022-12-01T08:10:01;31.00;;;15.10;;
11000;SDS011;5553;48.506;8.870;2022-12-01T08:12:29;31.30;;;15.10;;
11000;SDS011;5553;48.506;8.870;2022-12-01T08:14:58;27.20;;;13.90;;
11000;SDS011;5553;48.506;8.870;2022-12-01T08:17:26;33.80;;;14.97;;
11000;SDS011;5553;48.506;8.870;2022-12-01T08:19:57;33.30;;;15.13;;
11000;SDS011;5553;48.506;8.870;2022-12-01T08:22:25;35.17;;;17.30;;
11000;SDS011;5553;48.506;8.870;2022-12-01T08:24:53;35.10;;;16.70;;
11000;SDS011;5553;48.506;8.870;2022-12-01T08:27:22;42.33;;;18.67;;
11000;SDS011;5553;48.506;8.870;2022-12-01T08:29:50;39.97;;;17.93;;
11000;SDS011;5553;48.506;8.870;2022-12-01T08:32:18;40.70;;;19.40;;
11000;SDS011;5553;48.506;8.870;2022-12-01T08:34:47;34.13;;;16.60;;
11000;SDS011;5553;48.506;8.870;2022-12-01T08:37:18;35.13;;;16.77;;
11000;SDS011;5553;48.506;8.870;2022-12-01T08:39:46;42.47;;;17.37;;
11000;SDS011;5553;48.506;8.870;2022-12-01T08:42:14;32.47;;;16.73;;
11000;SDS011;5553;48.506;8.870;2022-12-01T08:44:43;36.53;;;15.30;;
11000;SDS011;5553;48.506;8.870;2022-12-01T08:47:11;38.70;;;17.93;;
11000;SDS011;5553;48.506;8.870;2022-12-01T08:49:39;41.87;;;18.50;;
11000;SDS011;5553;48.506;8.870;2022-12-01T08:52:08;33.03;;;15.87;;
11000;SDS011;5553;48.506;8.870;2022-12-01T08:54:39;42.10;;;20.20;;
11000;SDS011;5553;48.506;8.870;2022-12-01T08:57:07;35.03;;;15.63;;
11000;SDS011;5553;48.506;8.870;2022-12-01T08:59:35;37.67;;;17.63;;
11000;SDS011;5553;48.506;8.870;2022-12-01T09:02:04;37.03;;;17.43;;
11000;SDS011;5553;48.506;8.870;2022-12-01T09:04:34;34.13;;;17.30;;
11000;SDS011;5553;48.506;8.870;2022-12-01T09:07:03;40.47;;;16.90;;
11000;SDS011;5553;48.506;8.870;2022-12-01T09:09:31;33.93;;;17.70;;
11000;SDS011;5553;48.506;8.870;2022-12-01T09:12:05;39.73;;;16.80;;
11000;SDS011;5553;48.506;8.870;2022-12-01T09:14:35;44.03;;;17.70;;
11000;SDS011;5553;48.506;8.870;2022-12-01T09:17:04;39.43;;;17.27;;
11000;SDS011;5553;48.506;8.870;2022-12-01T09:19:33;43.63;;;19.77;;
11000;SDS011;5553;48.506;8.870;2022-12-01T09:22:01;42.83;;;19.13;;
11000;SDS011;5553;48.506;8.870;2022-12-01T09:24:29;35.73;;;17.17;;
11000;SDS011;5553;48.506;8.870;2022-12-01T09:26:58;44.50;;;20.57;;
11000;SDS011;5553;48.506;8.870;2022-12-01T09:29:30;42.77;;;18.93;;
11000;SDS011;5553;48.506;8.870;2022-12-01T09:31:59;40.43;;;17.80;;
11000;SDS011;5553;48.506;8.870;2022-12-01T09:34:27;35.43;;;17.53;;
11000;SDS011;5553;48.506;8.870;2022-12-01T09:36:56;36.63;;;16.70;;
11000;SDS011;5553;48.506;8.870;2022-12-01T09:39:25;38.90;;;18.70;;
11000;SDS011;5553;48.506;8.870;2022-12-01T09:41:54;37.43;;;16.93;;
11000;SDS011;5553;48.506;8.870;2022-12-01T09:44:30;37.47;;;16.93;;
11000;SDS011;5553;48.506;8.870;2022-12-01T09:47:07;37.63;;;16.90;;
11000;SDS011;5553;48.506;8.870;2022-12-01T09:49:54;41.73;;;16.50;;
11000;SDS011;5553;48.506;8.870;2022-12-01T09:52:26;35.80;;;18.10;;
11000;SDS011;5553;48.506;8.870;2022-12-01T09:54:59;34.30;;;16.80;;
11000;SDS011;5553;48.506;8.870;2022-12-01T09:57:29;47.93;;;23.17;;
11000;SDS011;5553;48.506;8.870;2022-12-01T10:00:04;42.70;;;19.03;;
11000;SDS011;5553;48.506;8.870;2022-12-01T10:02:36;41.67;;;18.90;;
11000;SDS011;5553;48.506;8.870;2022-12-01T10:05:11;36.67;;;18.77;;
11000;SDS011;5553;48.506;8.870;2022-12-01T10:07:43;39.73;;;18.90;;
11000;SDS011;5553;48.506;8.870;2022-12-01T10:10:14;40.33;;;19.20;;
11000;SDS011;5553;48.506;8.870;2022-12-01T10:12:47;33.60;;;18.70;;
11000;SDS011;5553;48.506;8.870;2022-12-01T10:15:21;42.50;;;18.93;;
11000;SDS011;5553;48.506;8.870;2022-12-01T10:18:01;38.70;;;18.43;;
11000;SDS011;5553;48.506;8.870;2022-12-01T10:20:40;39.00;;;17.80;;
11000;SDS011;5553;48.506;8.870;2022-12-01T10:23:26;41.87;;;20.13;;
11000;SDS011;5553;48.506;8.870;2022-12-01T10:26:08;37.93;;;18.50;;
11000;SDS011;5553;48.506;8.870;2022-12-01T10:31:33;45.70;;;19.30;;
11000;SDS011;5553;48.506;8.870;2022-12-01T10:34:06;39.67;;;19.13;;
11000;SDS011;5553;48.506;8.870;2022-12-01T10:36:40;41.43;;;18.37;;
11000;SDS011;5553;48.506;8.870;2022-12-01T10:39:12;42.70;;;20.23;;
11000;SDS011;5553;48.506;8.870;2022-12-01T10:41:46;28.17;;;17.10;;
11000;SDS011;5553;48.506;8.870;2022-12-01T10:44:16;40.43;;;18.07;;
11000;SDS011;5553;48.506;8.870;2022-12-01T10:46:49;32.50;;;16.57;;
11000;SDS011;5553;48.506;8.870;2022-12-01T10:49:22;43.10;;;20.33;;
11000;SDS011;5553;48.506;8.870;2022-12-01T10:52:03;36.47;;;18.37;;
11000;SDS011;5553;48.506;8.870;2022-12-01T10:54:32;34.00;;;16.90;;
11000;SDS011;5553;48.506;8.870;2022-12-01T10:57:02;37.73;;;18.80;;
11000;SDS011;5553;48.506;8.870;2022-12-01T10:59:34;41.27;;;18.83;;
11000;SDS011;5553;48.506;8.870;2022-12-01T11:02:13;38.23;;;17.77;;
11000;SDS011;5553;48.506;8.870;2022-12-01T11:04:45;36.13;;;18.10;;
11000;SDS011;5553;48.506;8.870;2022-12-01T11:07:20;41.60;;;19.47;;
11000;SDS011;5553;48.506;8.870;2022-12-01T11:10:01;32.47;;;16.93;;
11000;SDS011;5553;48.506;8.870;2022-12-01T11:12:33;37.53;;;17.43;;
11000;SDS011;5553;48.506;8.870;2022-12-01T11:15:01;48.73;;;18.93;;
11000;SDS011;5553;48.506;8.870;2022-12-01T11:17:36;41.70;;;18.03;;
11000;SDS011;5553;48.506;8.870;2022-12-01T11:20:24;41.47;;;21.23;;
11000;SDS011;5553;48.506;8.870;2022-12-01T11:23:16;43.47;;;18.80;;
11000;SDS011;5553;48.506;8.870;2022-12-01T11:26:01;34.53;;;18.20;;
11000;SDS011;5553;48.506;8.870;2022-12-01T11:28:32;37.90;;;18.10;;
11000;SDS011;5553;48.506;8.870;2022-12-01T11:31:03;36.03;;;17.40;;
11000;SDS011;5553;48.506;8.870;2022-12-01T11:33:42;37.30;;;17.30;;
11000;SDS011;5553;48.506;8.870;2022-12-01T11:39:04;34.90;;;17.70;;
11000;SDS011;5553;48.506;8.870;2022-12-01T11:41:35;33.57;;;16.37;;
11000;SDS011;5553;48.506;8.870;2022-12-01T11:44:13;37.50;;;18.13;;
11000;SDS011;5553;48.506;8.870;2022-12-01T11:46:44;35.07;;;17.70;;
11000;SDS011;5553;48.506;8.870;2022-12-01T11:49:18;41.60;;;18.87;;
11000;SDS011;5553;48.506;8.870;2022-12-01T11:51:48;34.60;;;17.50;;
11000;SDS011;5553;48.506;8.870;2022-12-01T11:54:18;36.70;;;18.10;;
11000;SDS011;5553;48.506;8.870;2022-12-01T11:56:51;28.90;;;16.80;;
11000;SDS011;5553;48.506;8.870;2022-12-01T11:59:21;31.10;;;15.17;;
11000;SDS011;5553;48.506;8.870;2022-12-01T12:02:01;36.93;;;17.13;;
11000;SDS011;5553;48.506;8.870;2022-12-01T12:04:49;32.83;;;15.23;;
11000;SDS011;5553;48.506;8.870;2022-12-01T12:07:26;37.27;;;16.17;;
11000;SDS011;5553;48.506;8.870;2022-12-01T12:10:06;31.50;;;16.60;;
11000;SDS011;5553;48.506;8.870;2022-12-01T12:12:48;33.50;;;16.73;;
11000;SDS011;5553;48.506;8.870;2022-12-01T12:15:29;26.53;;;14.83;;
11000;SDS011;5553;48.506;8.870;2022-12-01T12:18:15;27.00;;;15.67;;
11000;SDS011;5553;48.506;8.870;2022-12-01T12:21:06;34.70;;;16.43;;
11000;SDS011;5553;48.506;8.870;2022-12-01T12:23:46;35.23;;;16.97;;
11000;SDS011;5553;48.506;8.870;2022-12-01T12:26:25;31.30;;;15.53;;
11000;SDS011;5553;48.506;8.870;2022-12-01T12:29:10;28.10;;;15.77;;
11000;SDS011;5553;48.506;8.870;2022-12-01T12:31:51;35.67;;;19.27;;
11000;SDS011;5553;48.506;8.870;2022-12-01T12:34:38;35.97;;;17.50;;
11000;SDS011;5553;48.506;8.870;2022-12-01T12:37:19;35.60;;;17.83;;
11000;SDS011;5553;48.506;8.870;2022-12-01T12:40:00;35.47;;;18.10;;
11000;SDS011;5553;48.506;8.870;2022-12-01T12:42:43;39.83;;;19.47;;
11000;SDS011;5553;48.506;8.870;2022-12-01T12:45:20;39.33;;;19.10;;
11000;SDS011;5553;48.506;8.870;2022-12-01T12:47:58;32.17;;;16.53;;
11000;SDS011;5553;48.506;8.870;2022-12-01T12:50:35;39.40;;;18.53;;
11000;SDS011;5553;48.506;8.870;2022-12-01T12:53:14;32.20;;;15.97;;
11000;SDS011;5553;48.506;8.870;2022-12-01T12:55:47;29.50;;;16.03;;
11000;SDS011;5553;48.506;8.870;2022-12-01T12:58:19;38.40;;;16.80;;
11000;SDS011;5553;48.506;8.870;2022-12-01T13:00:51;36.23;;;18.53;;
11000;SDS011;5553;48.506;8.870;2022-12-01T13:03:24;31.50;;;17.93;;
11000;SDS011;5553;48.506;8.870;2022-12-01T13:06:03;34.77;;;19.20;;
11000;SDS011;5553;48.506;8.870;2022-12-01T13:08:38;41.10;;;20.07;;
11000;SDS011;5553;48.506;8.870;2022-12-01T13:11:13;38.27;;;19.23;;
11000;SDS011;5553;48.506;8.870;2022-12-01T13:13:48;36.63;;;19.83;;
11000;SDS011;5553;48.506;8.870;2022-12-01T13:16:25;34.07;;;16.87;;
11000;SDS011;5553;48.506;8.870;2022-12-01T13:18:59;34.77;;;17.50;;
11000;SDS011;5553;48.506;8.870;2022-12-01T13:21:34;42.70;;;21.67;;
11000;SDS011;5553;48.506;8.870;2022-12-01T13:24:08;39.30;;;20.10;;
11000;SDS011;5553;48.506;8.870;2022-12-01T13:26:39;36.40;;;18.10;;
11000;SDS011;5553;48.506;8.870;2022-12-01T13:29:12;46.60;;;21.70;;
11000;SDS011;5553;48.506;8.870;2022-12-01T13:31:45;61.10;;;27.83;;
11000;SDS011;5553;48.506;8.870;2022-12-01T13:34:20;69.10;;;29.43;;
11000;SDS011;5553;48.506;8.870;2022-12-01T13:36:52;41.27;;;19.30;;
11000;SDS011;5553;48.506;8.870;2022-12-01T13:39:25;36.40;;;18.00;;
11000;SDS011;5553;48.506;8.870;2022-12-01T13:42:00;34.40;;;17.60;;
11000;SDS011;5553;48.506;8.870;2022-12-01T13:44:35;35.53;;;19.00;;
11000;SDS011;5553;48.506;8.870;2022-12-01T13:53:24;33.90;;;16.93;;
11000;SDS011;5553;48.506;8.870;2022-12-01T13:59:35;45.27;;;18.93;;
11000;SDS011;5553;48.506;8.870;2022-12-01T14:02:32;27.53;;;16.20;;
11000;SDS011;5553;48.506;8.870;2022-12-01T14:08:09;35.10;;;16.30;;
11000;SDS011;5553;48.506;8.870;2022-12-01T14:10:42;40.57;;;18.97;;
11000;SDS011;5553;48.506;8.870;2022-12-01T14:13:20;37.83;;;17.70;;
11000;SDS011;5553;48.506;8.870;2022-12-01T14:15:54;40.17;;;19.07;;
11000;SDS011;5553;48.506;8.870;2022-12-01T14:18:29;41.73;;;19.40;;
11000;SDS011;5553;48.506;8.870;2022-12-01T14:21:03;40.63;;;20.97;;
11000;SDS011;5553;48.506;8.870;2022-12-01T14:23:35;35.70;;;18.30;;
11000;SDS011;5553;48.506;8.870;2022-12-01T14:26:10;43.43;;;24.20;;
11000;SDS011;5553;48.506;8.870;2022-12-01T14:34:56;36.17;;;16.27;;
11000;SDS011;5553;48.506;8.870;2022-12-01T14:37:32;37.50;;;19.53;;
11000;SDS011;5553;48.506;8.870;2022-12-01T14:40:06;35.13;;;17.90;;
11000;SDS011;5553;48.506;8.870;2022-12-01T14:42:40;32.03;;;14.30;;
11000;SDS011;5553;48.506;8.870;2022-12-01T14:45:25;41.00;;;19.00;;
11000;SDS011;5553;48.506;8.870;2022-12-01T14:47:58;39.00;;;18.30;;
11000;SDS011;5553;48.506;8.870;2022-12-01T14:50:36;39.70;;;20.60;;
11000;SDS011;5553;48.506;8.870;2022-12-01T14:53:12;34.20;;;17.83;;
11000;SDS011;5553;48.506;8.870;2022-12-01T14:55:46;31.30;;;16.60;;
11000;SDS011;5553;48.506;8.870;2022-12-01T14:58:21;34.37;;;15.67;;
11000;SDS011;5553;48.506;8.870;2022-12-01T15:00:56;33.00;;;16.53;;
11000;SDS011;5553;48.506;8.870;2022-12-01T15:03:31;34.47;;;17.20;;
11000;SDS011;5553;48.506;8.870;2022-12-01T15:06:05;39.33;;;14.87;;
11000;SDS011;5553;48.506;8.870;2022-12-01T15:08:35;33.50;;;15.17;;
11000;SDS011;5553;48.506;8.870;2022-12-01T15:11:06;35.93;;;17.43;;
11000;SDS011;5553;48.506;8.870;2022-12-01T15:13:46;31.73;;;16.67;;
11000;SDS011;5553;48.506;8.870;2022-12-01T15:16:17;33.20;;;15.67;;
11000;SDS011;5553;48.506;8.870;2022-12-01T15:18:47;36.70;;;17.73;;
11000;SDS011;5553;48.506;8.870;2022-12-01T15:21:18;33.00;;;15.63;;
11000;SDS011;5553;48.506;8.870;2022-12-01T15:23:53;33.80;;;17.10;;
11000;SDS011;5553;48.506;8.870;2022-12-01T15:26:24;32.77;;;15.63;;
11000;SDS011;5553;48.506;8.870;2022-12-01T15:31:50;35.13;;;15.07;;
11000;SDS011;5553;48.506;8.870;2022-12-01T15:34:21;37.83;;;18.13;;
11000;SDS011;5553;48.506;8.870;2022-12-01T15:36:56;31.83;;;16.00;;
11000;SDS011;5553;48.506;8.870;2022-12-01T15:39:29;28.93;;;16.20;;